Observations for BOURNEMOUTH AIRPORT, United Kingdom (EGHH)

EGHH 221220Z 12010KT 090V160 9999 FEW015 SCT040 21/17 Q1018 
EGHH 221120Z 11010KT 9999 FEW015 SCT041 21/17 Q1017 
EGHH 221050Z 13010KT 9999 FEW014 SCT041 21/17 Q1018 
EGHH 221020Z 12009KT 9999 FEW012 SCT018 21/17 Q1019 
EGHH 220950Z 14008KT 9999 FEW008 SCT011 BKN039 20/17 Q1019  
EGHH 220920Z 14006KT 9999 FEW004 SCT010 BKN040 20/17 Q1019  
EGHH 220850Z 11008KT 8000 BKN004 BKN038 19/18 Q1019 
EGHH 220820Z 11007KT 070V150 6000 BKN003 18/18 Q1019
EGHH 220750Z 11004KT 060V150 2500 BR OVC002 18/17 Q1019 
EGHH 220720Z 09003KT 0900 R26/1500 FG OVC001 17/17 Q1019
EGHH 220650Z 08005KT 0800 R26/1500 FG OVC001 17/17 Q1019
EGHH 220620Z 11006KT 0800 R08/1500 R26/1500 FG OVC001 16/16 Q1019   
EGHH 220550Z 08005KT 0600 R08/1000 R26/1400 FG OVC002 16/16 Q1019   
EGHH 220520Z 09005KT 0400 R08/0800 R26/0800 FG OVC002 16/16 Q1019   
EGHH 220450Z 09005KT 0400 FG OVC002 16/16 Q1019 
EGHH 212220Z 14001KT 4500 2000S MIFG BR FEW003 15/14 Q1020  
EGHH 212150Z 14001KT 9000 MIFG FEW048 15/14 Q1020   
EGHH 212120Z 09001KT 9000 MIFG FEW048 16/15 Q1020   
EGHH 212050Z 00000KT 9999 BKN048 17/16 Q1020
EGHH 212020Z 00000KT 8000 BKN048 19/17 Q1020
EGHH 211950Z 00000KT 9999 BKN046 19/17 Q1020
EGHH 211920Z VRB02KT 9999 FEW032 19/16 Q1020
EGHH 211850Z VRB04KT 9999 FEW032 19/16 Q1020
EGHH 211820Z VRB02KT 9999 SCT032 21/17 Q1020
EGHH 211750Z 17002KT 9999 BKN030 21/17 Q1020
EGHH 211720Z 17006KT 9999 BKN032 21/18 Q1020
EGHH 211650Z 18006KT 9999 FEW030 BKN041 21/18 Q1020 
EGHH 211620Z 19004KT 9999 FEW033 BKN039 22/18 Q1020 
EGHH 211550Z 18005KT 9999 FEW027 BKN033 22/18 Q1020 
EGHH 211520Z 19006KT 9999 FEW027 BKN031 21/18 Q1020 
EGHH 211450Z 17005KT 9999 FEW027 BKN030 21/18 Q1020 
EGHH 211420Z 17003KT 9999 FEW027 BKN031 22/18 Q1020 
EGHH 211350Z 26003KT 9999 FEW027 BKN029 23/18 Q1020 
EGHH 211320Z 27004KT 210V330 9999 BKN027 23/18 Q1020
EGHH 211250Z 30005KT 240V030 9999 SCT026 BKN041 23/17 Q1020 
EGHH 211220Z 33005KT 280V340 9999 SCT028 BKN042 23/18 Q1020 
EGHH 211150Z 34007KT 9999 SCT028 BKN037 22/18 Q1021